Time;durP1;ratioP1;P1;durP2;ratioP2;P2;SDS_P1;SDS_P2;PMS_P1;PMS_P2;Temp;Humidity;BMP_temperature;BMP_pressure;BME280_temperature;BME280_humidity;BME280_pressure;Samples;Min_cycle;Max_cycle;Signal;HPM_P1;HPM_P2
2023/11/19 00:00:11;;;;;;;2.80;2.60;;;;;;;4.02;65.35;100121.70;108450;1251;73538;-58
2023/11/19 00:02:41;;;;;;;5.00;3.10;;;;;;;4.01;65.34;100119.11;108556;1251;69654;-59
2023/11/19 00:05:11;;;;;;;3.00;2.80;;;;;;;4.00;65.36;100117.05;108239;1251;72472;-59
2023/11/19 00:07:42;;;;;;;3.60;3.30;;;;;;;3.95;65.49;100107.52;108466;1253;59541;-59
2023/11/19 00:10:12;;;;;;;6.70;3.90;;;;;;;3.90;65.85;100108.80;108437;1251;60651;-59
2023/11/19 00:12:41;;;;;;;3.10;2.80;;;;;;;3.88;65.87;100109.15;108446;1251;74043;-60
2023/11/19 00:15:11;;;;;;;4.40;3.80;;;;;;;3.89;66.24;100111.22;108461;1251;69310;-58
2023/11/19 00:17:44;;;;;;;3.60;3.30;;;;;;;3.89;66.20;100107.58;108535;1251;72483;-59
2023/11/19 00:20:12;;;;;;;3.50;3.20;;;;;;;3.91;66.23;100101.84;108539;1253;60619;-63
2023/11/19 00:22:41;;;;;;;3.90;3.00;;;;;;;3.93;66.36;100099.39;108471;1251;58984;-60
2023/11/19 00:25:12;;;;;;;3.30;3.00;;;;;;;3.94;66.40;100096.27;108459;1251;74516;-60
2023/11/19 00:27:39;;;;;;;;;;;;;;;3.93;66.55;100095.58;108471;1251;69422;-60
2023/11/19 00:30:10;;;;;;;3.30;3.00;;;;;;;3.94;66.63;100098.70;108526;1251;72210;-60
2023/11/19 00:32:39;;;;;;;3.50;2.90;;;;;;;3.93;66.62;100106.16;108439;1251;58987;-62
2023/11/19 00:35:07;;;;;;;3.60;3.20;;;;;;;3.92;66.65;100110.84;108497;1252;59010;-59
2023/11/19 00:37:35;;;;;;;3.20;3.00;;;;;;;3.93;66.44;100111.19;108242;1251;73733;-59
2023/11/19 00:40:06;;;;;;;2.90;2.70;;;;;;;3.99;66.06;100114.27;108591;1251;69064;-59
2023/11/19 00:42:33;;;;;;;3.50;3.20;;;;;;;4.05;65.80;100116.29;108306;1253;72345;-59
2023/11/19 00:45:01;;;;;;;3.50;3.00;;;;;;;4.06;65.74;100115.41;108291;1252;59340;-59
2023/11/19 00:47:31;;;;;;;3.20;2.90;;;;;;;4.10;65.75;100116.06;108167;1253;59816;-59
2023/11/19 00:49:58;;;;;;;3.60;3.10;;;;;;;4.12;65.67;100113.96;108191;1253;73567;-60
2023/11/19 00:52:26;;;;;;;4.20;3.30;;;;;;;4.13;65.26;100112.41;108174;1253;68643;-59
2023/11/19 00:54:54;;;;;;;4.10;3.10;;;;;;;4.09;65.68;100110.35;108197;1253;72369;-59
2023/11/19 00:57:21;;;;;;;4.00;3.20;;;;;;;4.08;65.43;100103.27;108260;1253;59940;-59
2023/11/19 00:59:49;;;;;;;;;;;;;;;4.05;65.54;100100.85;108271;1253;59710;-59
2023/11/19 01:02:17;;;;;;;2.70;2.50;;;;;;;4.03;65.61;100101.55;108330;1252;73611;-59
2023/11/19 01:04:45;;;;;;;3.30;3.00;;;;;;;4.01;65.44;100096.73;108217;1253;69864;-59
2023/11/19 01:07:13;;;;;;;3.00;2.70;;;;;;;4.07;65.36;100102.23;108321;1252;73354;-60
2023/11/19 01:09:44;;;;;;;3.90;3.30;;;;;;;4.08;65.48;100100.64;108097;1253;59960;-59
2023/11/19 01:17:16;;;;;;;3.80;3.50;;;;;;;4.05;65.07;100087.15;108341;1253;74596;-59
2023/11/19 01:19:45;;;;;;;3.30;3.00;;;;;;;4.00;64.97;100083.04;108237;1253;70059;-59
2023/11/19 01:22:12;;;;;;;6.20;2.90;;;;;;;3.98;65.35;100082.00;108237;1252;72467;-60
2023/11/19 01:24:40;;;;;;;3.50;2.90;;;;;;;4.01;65.38;100080.42;108189;1253;59661;-60
2023/11/19 01:27:08;;;;;;;4.50;3.10;;;;;;;3.99;65.19;100075.59;108062;1253;60157;-59
2023/11/19 01:29:38;;;;;;;4.80;3.10;;;;;;;3.95;65.21;100069.55;108136;1252;74068;-60
2023/11/19 01:32:06;;;;;;;4.40;3.20;;;;;;;3.96;65.15;100064.15;108164;1253;69600;-60
2023/11/19 01:34:35;;;;;;;3.40;3.00;;;;;;;3.91;64.75;100060.23;108001;1253;72936;-60
2023/11/19 01:37:03;;;;;;;3.50;3.10;;;;;;;3.89;64.91;100064.21;108218;1252;58960;-61
2023/11/19 01:39:31;;;;;;;;;;;;;;;3.88;64.51;100063.36;108323;1252;60759;-60
2023/11/19 01:41:58;;;;;;;;;;;;;;;3.89;64.78;100062.65;108296;1252;73576;-60
2023/11/19 01:44:26;;;;;;;4.30;2.60;;;;;;;3.87;64.67;100058.69;108365;1252;68868;-59
2023/11/19 01:46:54;;;;;;;5.50;3.10;;;;;;;3.88;64.56;100060.41;108387;1252;73193;-59
2023/11/19 01:49:22;;;;;;;3.00;2.70;;;;;;;3.86;64.57;100061.64;108255;1253;58963;-60
2023/11/19 01:51:50;;;;;;;3.70;3.10;;;;;;;3.84;64.29;100064.43;108267;1253;59892;-60
2023/11/19 01:54:17;;;;;;;3.20;2.90;;;;;;;3.86;64.55;100066.33;108507;1252;74898;-59
2023/11/19 01:56:45;;;;;;;4.20;2.80;;;;;;;3.86;64.63;100067.02;108505;1252;69619;-62
2023/11/19 01:59:13;;;;;;;;;;;;;;;3.85;64.41;100063.39;108310;1252;72379;-59
2023/11/19 02:01:42;;;;;;;4.10;2.60;;;;;;;3.89;64.37;100055.04;108166;1252;58955;-60
2023/11/19 02:04:10;;;;;;;3.60;2.90;;;;;;;3.92;64.58;100051.52;108389;1252;59853;-60
2023/11/19 02:06:40;;;;;;;;;;;;;;;3.94;64.51;100053.60;108169;1253;73754;-59
2023/11/19 02:09:10;;;;;;;3.50;3.20;;;;;;;3.89;64.25;100054.15;108284;1253;69188;-59
2023/11/19 02:11:40;;;;;;;3.20;2.90;;;;;;;3.86;64.26;100057.14;108268;1253;72406;-62
2023/11/19 02:14:07;;;;;;;3.10;2.80;;;;;;;3.88;64.47;100056.07;108164;1253;59892;-61
2023/11/19 02:16:35;;;;;;;2.90;2.60;;;;;;;3.89;64.19;100054.33;108034;1251;59696;-60
2023/11/19 02:19:03;;;;;;;3.00;2.80;;;;;;;3.94;64.45;100053.59;108265;1253;73625;-61
2023/11/19 02:21:31;;;;;;;3.70;2.90;;;;;;;3.94;64.38;100050.47;108407;1252;71385;-60
2023/11/19 02:23:59;;;;;;;;;;;;;;;3.99;64.29;100051.13;108237;1253;71484;-59
2023/11/19 02:26:38;;;;;;;2.90;2.50;;;;;;;3.94;64.32;100047.34;108350;1251;59355;-60
2023/11/19 02:29:06;;;;;;;4.00;2.40;;;;;;;3.87;64.01;100050.02;108451;1252;59919;-60
2023/11/19 02:31:36;;;;;;;3.60;3.00;;;;;;;3.87;64.25;100053.14;108395;1252;73666;-60
2023/11/19 02:34:04;;;;;;;3.50;3.20;;;;;;;3.87;64.31;100050.89;108285;1252;69432;-60
2023/11/19 02:36:32;;;;;;;;;;;;;;;3.84;64.32;100058.35;108392;1252;72256;-59
2023/11/19 02:38:59;;;;;;;3.20;2.90;;;;;;;3.82;64.44;100060.80;108467;1252;58373;-60
2023/11/19 02:41:27;;;;;;;2.90;2.40;;;;;;;3.82;64.34;100059.78;108230;1252;59717;-60
2023/11/19 02:43:55;;;;;;;3.00;2.80;;;;;;;3.77;64.02;100056.17;108222;1253;74585;-60
2023/11/19 02:46:23;;;;;;;5.90;3.10;;;;;;;3.77;64.34;100052.35;108278;1253;69168;-60
2023/11/19 02:48:51;;;;;;;3.30;3.00;;;;;;;3.78;64.42;100051.82;108271;1253;72959;-60
2023/11/19 02:51:19;;;;;;;3.40;3.00;;;;;;;3.77;64.56;100047.84;108344;1252;58675;-60
2023/11/19 02:53:48;;;;;;;2.80;2.60;;;;;;;3.77;64.78;100044.02;108119;1253;59295;-60
2023/11/19 02:56:25;;;;;;;4.40;3.00;;;;;;;3.77;64.42;100043.34;108226;1253;73567;-60
2023/11/19 02:58:54;;;;;;;4.30;3.00;;;;;;;3.71;64.47;100040.62;108284;1252;69134;-61
2023/11/19 03:01:29;;;;;;;3.80;3.10;;;;;;;3.69;64.21;100033.52;108009;1254;72344;-60
2023/11/19 03:03:58;;;;;;;3.70;2.90;;;;;;;3.66;64.59;100024.19;108336;1252;59014;-60
2023/11/19 03:06:27;;;;;;;4.20;3.30;;;;;;;3.68;64.57;100018.45;108118;1253;58682;-59
2023/11/19 03:08:55;;;;;;;3.30;3.00;;;;;;;3.66;64.56;100015.00;107939;1253;72772;-59
2023/11/19 03:11:23;;;;;;;3.60;3.20;;;;;;;3.62;64.62;100014.86;108228;1253;69635;-60
2023/11/19 03:13:50;;;;;;;2.80;2.60;;;;;;;3.64;64.80;100015.00;108243;1253;71436;-61
2023/11/19 03:16:18;;;;;;;3.00;2.70;;;;;;;3.61;64.80;100011.91;108240;1253;59177;-60
2023/11/19 03:18:46;;;;;;;;;;;;;;;3.57;65.11;100011.09;108353;1252;60014;-60
2023/11/19 03:21:13;;;;;;;3.30;3.00;;;;;;;3.57;65.17;100005.55;108217;1254;72991;-59
2023/11/19 03:23:41;;;;;;;2.80;2.60;;;;;;;3.54;64.94;100007.64;108221;1252;70376;-59
2023/11/19 03:26:10;;;;;;;3.80;2.80;;;;;;;3.55;65.19;100010.24;108280;1252;72355;-60
2023/11/19 03:28:39;;;;;;;3.20;2.90;;;;;;;3.60;65.08;100004.83;108243;1252;58941;-60
2023/11/19 03:31:09;;;;;;;3.40;2.50;;;;;;;3.63;64.99;100001.52;108077;1253;60239;-61
2023/11/19 03:33:37;;;;;;;3.80;3.40;;;;;;;3.65;64.71;99997.15;108018;1253;73620;-60
2023/11/19 03:36:06;;;;;;;;;;;;;;;3.64;64.95;99999.05;108230;1252;69155;-60
2023/11/19 03:38:33;;;;;;;2.60;2.40;;;;;;;3.67;64.73;99996.09;108198;1253;72547;-60
2023/11/19 03:41:01;;;;;;;3.40;3.10;;;;;;;3.70;64.80;99993.45;108198;1250;58868;-62
2023/11/19 03:43:28;;;;;;;2.80;2.60;;;;;;;3.64;64.71;99986.58;108247;1251;62175;-59
2023/11/19 03:45:56;;;;;;;;;;;;;;;3.67;64.67;99997.99;108454;1251;76781;-59
2023/11/19 03:48:24;;;;;;;2.40;2.20;;;;;;;3.64;64.61;99994.73;108479;1251;69053;-59
2023/11/19 03:50:51;;;;;;;3.00;2.70;;;;;;;3.65;64.49;99988.83;108336;1251;72930;-60
2023/11/19 03:53:19;;;;;;;3.00;2.70;;;;;;;3.69;64.81;99991.90;108493;1252;59410;-59
2023/11/19 03:55:46;;;;;;;3.00;2.70;;;;;;;3.76;64.94;99993.58;108514;1251;60186;-61
2023/11/19 03:58:14;;;;;;;2.90;2.60;;;;;;;3.78;64.72;99998.77;108363;1250;74063;-59
2023/11/19 04:00:42;;;;;;;;;;;;;;;3.85;64.90;99989.34;108403;1251;70220;-59
2023/11/19 04:03:09;;;;;;;3.60;2.60;;;;;;;3.85;64.60;99982.91;108316;1253;71432;-59
2023/11/19 04:05:37;;;;;;;3.00;2.70;;;;;;;3.83;64.62;99984.15;108164;1251;58777;-59
2023/11/19 04:08:05;;;;;;;3.10;2.80;;;;;;;3.85;64.46;99983.62;108079;1251;60957;-60
2023/11/19 04:10:33;;;;;;;;;;;;;;;3.85;64.58;99981.88;108240;1252;73695;-60
2023/11/19 04:13:01;;;;;;;;;;;;;;;3.81;64.43;99977.05;108474;1250;69756;-60
2023/11/19 04:15:29;;;;;;;2.50;2.30;;;;;;;3.79;64.43;99969.45;108417;1251;72844;-59
2023/11/19 04:17:56;;;;;;;2.70;2.50;;;;;;;3.79;64.33;99966.33;108411;1251;59968;-59
2023/11/19 04:20:25;;;;;;;3.20;2.90;;;;;;;3.77;64.22;99962.88;108317;1251;59919;-59
2023/11/19 04:22:53;;;;;;;3.10;2.80;;;;;;;3.72;64.84;99959.11;108313;1250;72351;-60
2023/11/19 04:25:21;;;;;;;3.30;3.00;;;;;;;3.70;64.59;99956.54;108395;1250;69467;-59
2023/11/19 04:27:51;;;;;;;3.00;2.70;;;;;;;3.69;64.52;99960.52;108073;1253;72945;-59
2023/11/19 04:30:18;;;;;;;3.20;2.90;;;;;;;3.71;64.77;99956.02;108390;1251;58754;-59
2023/11/19 04:32:46;;;;;;;4.00;3.20;;;;;;;3.77;64.64;99962.53;108384;1251;59263;-60
2023/11/19 04:35:14;;;;;;;2.70;2.50;;;;;;;3.73;64.51;99964.13;108348;1251;73638;-59
2023/11/19 04:37:41;;;;;;;;;;;;;;;3.76;64.54;99960.98;108410;1251;69559;-59
2023/11/19 04:40:11;;;;;;;3.60;2.90;;;;;;;3.74;64.20;99959.27;108316;1252;72963;-60
2023/11/19 04:42:42;;;;;;;3.20;2.90;;;;;;;3.66;64.41;99965.59;108469;1251;59381;-60
2023/11/19 04:45:11;;;;;;;3.10;2.80;;;;;;;3.62;64.47;99957.81;108344;1251;59715;-59
2023/11/19 04:47:39;;;;;;;2.60;2.40;;;;;;;3.66;64.39;99973.38;108362;1251;74538;-60
2023/11/19 04:50:06;;;;;;;2.80;2.50;;;;;;;3.67;64.70;99980.66;108171;1250;69075;-59
2023/11/19 04:52:34;;;;;;;;;;;;;;;3.71;64.51;99977.15;108382;1251;71961;-60
2023/11/19 04:55:02;;;;;;;2.50;2.30;;;;;;;3.65;64.41;99979.12;108284;1251;59468;-59
2023/11/19 04:57:32;;;;;;;2.80;2.60;;;;;;;3.64;64.38;99983.29;108351;1251;59055;-65
2023/11/19 05:00:00;;;;;;;3.00;2.80;;;;;;;3.66;64.34;99977.89;108458;1251;72891;-62
2023/11/19 05:02:28;;;;;;;2.70;2.50;;;;;;;3.66;64.26;99981.70;108361;1250;68036;-61
2023/11/19 05:04:55;;;;;;;3.40;2.90;;;;;;;3.67;64.19;99981.88;108346;1251;72373;-61
2023/11/19 05:07:23;;;;;;;3.90;3.60;;;;;;;3.66;64.14;99982.58;108373;1252;59032;-61
2023/11/19 05:09:51;;;;;;;3.00;2.70;;;;;;;3.58;64.17;99976.41;108356;1252;60187;-61
2023/11/19 05:12:18;;;;;;;3.20;2.50;;;;;;;3.58;64.29;99974.86;108349;1251;74593;-58
2023/11/19 05:14:49;;;;;;;3.80;2.60;;;;;;;3.59;64.51;99973.12;108349;1251;69183;-58
2023/11/19 05:17:18;;;;;;;2.80;2.60;;;;;;;3.58;64.30;99971.38;108381;1251;70988;-58
2023/11/19 05:19:47;;;;;;;2.70;2.50;;;;;;;3.61;63.81;99972.73;108401;1251;60444;-58
2023/11/19 05:22:14;;;;;;;4.00;2.50;;;;;;;3.62;63.81;99973.96;108393;1251;60125;-59
2023/11/19 05:24:42;;;;;;;2.30;2.10;;;;;;;3.62;63.25;99976.90;108353;1250;73587;-59
2023/11/19 05:27:11;;;;;;;2.00;1.80;;;;;;;3.66;63.38;99969.74;108511;1251;69489;-59
2023/11/19 05:29:39;;;;;;;2.90;2.10;;;;;;;3.69;63.11;99968.85;108424;1251;71253;-60
2023/11/19 05:32:06;;;;;;;2.10;2.00;;;;;;;3.70;63.00;99973.88;108402;1251;59059;-58
2023/11/19 05:34:34;;;;;;;2.40;2.20;;;;;;;3.72;62.62;99973.34;108408;1251;59780;-59
2023/11/19 05:37:02;;;;;;;2.40;2.20;;;;;;;3.73;62.47;99968.13;108344;1250;74590;-59
2023/11/19 05:39:30;;;;;;;2.90;2.70;;;;;;;3.69;62.09;99968.50;108367;1251;70177;-59
2023/11/19 05:41:58;;;;;;;2.30;2.10;;;;;;;3.70;62.32;99965.02;108427;1252;72395;-60
2023/11/19 05:47:41;;;;;;;3.00;2.00;;;;;;;3.78;61.88;99952.11;101217;1296;601134;-59
2023/11/19 05:50:10;;;;;;;2.40;2.30;;;;;;;3.72;61.46;99953.40;103720;1282;59278;-59
2023/11/19 05:52:38;;;;;;;4.60;2.40;;;;;;;3.66;61.03;99951.02;106682;1265;60368;-59
2023/11/19 05:55:09;;;;;;;2.00;1.90;;;;;;;3.63;60.95;99948.98;104284;1270;72077;-60
2023/11/19 05:57:37;;;;;;;2.50;2.30;;;;;;;3.59;60.74;99949.70;104474;1266;68481;-61
2023/11/19 06:00:15;;;;;;;2.30;2.10;;;;;;;3.56;60.60;99949.05;103721;1268;240224;-60
2023/11/19 06:02:43;;;;;;;3.00;2.10;;;;;;;3.55;60.37;99945.59;104327;1268;59354;-60
2023/11/19 06:05:11;;;;;;;2.20;2.00;;;;;;;3.54;60.25;99944.20;106820;1251;60133;-60
2023/11/19 06:07:41;;;;;;;2.30;2.10;;;;;;;3.55;60.32;99941.94;104775;1251;71797;-61
2023/11/19 06:10:09;;;;;;;2.30;2.10;;;;;;;3.62;60.11;99938.41;104443;1257;69443;-61
2023/11/19 06:12:38;;;;;;;2.20;2.00;;;;;;;3.61;60.03;99939.29;104664;1269;72716;-61
2023/11/19 06:15:08;;;;;;;2.60;2.20;;;;;;;3.64;60.43;99940.30;104892;1258;59849;-64
2023/11/19 06:17:36;;;;;;;2.10;1.90;;;;;;;3.66;59.65;99931.09;104948;1252;60222;-57
2023/11/19 06:20:05;;;;;;;2.00;1.70;;;;;;;3.68;59.28;99929.86;104924;1251;73597;-60
2023/11/19 06:22:33;;;;;;;2.20;2.00;;;;;;;3.70;59.33;99926.36;104703;1253;69787;-59
2023/11/19 06:25:01;;;;;;;;;;;;;;;3.73;59.14;99927.73;104537;1255;73347;-58
2023/11/19 06:27:29;;;;;;;2.20;2.00;;;;;;;3.74;59.11;99925.98;104619;1257;59669;-57
2023/11/19 06:29:56;;;;;;;;;;;;;;;3.71;58.79;99926.70;105391;1251;60802;-58
2023/11/19 06:32:24;;;;;;;2.40;2.20;;;;;;;3.71;58.85;99926.17;104724;1258;72788;-57
2023/11/19 06:34:52;;;;;;;2.00;1.70;;;;;;;3.75;58.45;99927.70;104814;1254;69760;-59
2023/11/19 06:37:19;;;;;;;1.90;1.60;;;;;;;3.75;58.24;99927.70;104806;1253;73829;-63
2023/11/19 06:39:47;;;;;;;1.70;1.60;;;;;;;3.74;58.15;99919.57;105218;1251;59721;-61
2023/11/19 06:42:15;;;;;;;1.60;1.50;;;;;;;3.74;57.78;99914.71;104509;1252;59763;-60
2023/11/19 06:44:43;;;;;;;1.50;1.30;;;;;;;3.71;57.93;99913.17;105164;1251;72866;-60
2023/11/19 06:47:10;;;;;;;1.90;1.50;;;;;;;3.71;57.83;99912.84;105105;1251;69610;-60
2023/11/19 06:49:39;;;;;;;1.70;1.60;;;;;;;3.74;57.68;99913.16;104695;1256;71383;-62
2023/11/19 06:52:06;;;;;;;1.80;1.70;;;;;;;3.77;57.47;99908.97;104685;1259;59762;-58
2023/11/19 06:54:34;;;;;;;1.80;1.70;;;;;;;3.76;57.37;99907.06;105611;1251;60095;-60
2023/11/19 06:58:19;;;;;;;1.70;1.60;;;;;;;3.26;59.07;99899.53;101701;1296;600896;-59
2023/11/19 07:00:48;;;;;;;1.90;1.80;;;;;;;3.65;57.97;99896.08;103529;1267;59372;-60
2023/11/19 07:03:16;;;;;;;1.80;1.70;;;;;;;3.67;57.60;99900.91;103785;1267;59841;-60
2023/11/19 07:05:44;;;;;;;;;;;;;;;3.67;57.62;99893.28;103513;1273;71937;-60
2023/11/19 07:08:12;;;;;;;1.60;1.50;;;;;;;3.65;57.45;99891.56;103755;1272;69532;-61
2023/11/19 07:10:40;;;;;;;1.90;1.80;;;;;;;3.65;57.51;99895.55;104510;1264;72729;-61
2023/11/19 07:13:08;;;;;;;;;;;;;;;3.70;57.50;99899.66;104530;1261;268131;-60
2023/11/19 07:15:36;;;;;;;1.40;1.30;;;;;;;3.74;57.16;99908.46;104700;1257;59516;-60
2023/11/19 07:18:03;;;;;;;;;;;;;;;3.75;57.12;99905.16;104360;1256;72863;-60
2023/11/19 07:20:32;;;;;;;1.80;1.70;;;;;;;3.74;57.16;99906.55;104665;1257;69830;-59
2023/11/19 07:23:00;;;;;;;1.70;1.60;;;;;;;3.72;57.01;99907.61;104832;1256;72948;-60
2023/11/19 07:25:28;;;;;;;;;;;;;;;3.73;57.19;99909.18;104604;1253;59755;-60
2023/11/19 07:27:56;;;;;;;3.20;1.50;;;;;;;3.74;57.02;99901.70;104550;1254;60439;-59
2023/11/19 07:30:24;;;;;;;2.00;1.70;;;;;;;3.74;57.16;99903.61;104967;1260;71830;-59
2023/11/19 07:32:51;;;;;;;2.40;2.10;;;;;;;3.70;57.11;99909.20;104874;1254;69816;-61
2023/11/19 07:35:20;;;;;;;2.10;1.70;;;;;;;3.84;56.62;99909.58;104498;1253;72639;-60
2023/11/19 07:37:48;;;;;;;2.70;1.90;;;;;;;3.82;56.39;99907.86;105036;1254;59791;-59
2023/11/19 07:40:15;;;;;;;2.30;2.10;;;;;;;3.81;56.41;99903.37;104965;1256;60008;-60
2023/11/19 07:42:43;;;;;;;;;;;;;;;3.83;56.52;99895.54;105118;1254;73369;-59
2023/11/19 07:45:11;;;;;;;1.80;1.70;;;;;;;3.83;56.42;99884.77;104941;1254;68137;-61
2023/11/19 07:47:38;;;;;;;2.00;1.90;;;;;;;3.91;56.52;99887.98;104803;1254;73148;-61
2023/11/19 07:50:07;;;;;;;;;;;;;;;3.95;56.48;99895.75;104825;1254;59655;-61
2023/11/19 07:52:35;;;;;;;3.10;2.20;;;;;;;3.90;56.28;99899.11;105116;1256;60104;-60
2023/11/19 07:55:03;;;;;;;1.70;1.60;;;;;;;3.88;56.09;99896.52;104519;1257;73282;-61
2023/11/19 07:57:31;;;;;;;2.60;2.00;;;;;;;3.89;56.57;99897.20;104610;1257;71440;-61
2023/11/19 08:00:01;;;;;;;1.90;1.80;;;;;;;3.91;56.34;99901.69;105299;1254;72316;-61
2023/11/19 08:02:39;;;;;;;2.70;2.50;;;;;;;3.90;56.21;99896.67;104460;1256;59845;-61
2023/11/19 08:05:08;;;;;;;2.30;2.10;;;;;;;3.91;56.24;99892.33;104484;1259;59771;-60
2023/11/19 08:07:38;;;;;;;3.40;2.30;;;;;;;3.91;56.29;99888.52;104795;1257;72812;-61
2023/11/19 08:10:09;;;;;;;3.40;2.30;;;;;;;3.94;56.50;99886.92;104710;1254;69859;-60
2023/11/19 08:12:37;;;;;;;2.80;1.90;;;;;;;4.02;56.37;99883.88;105015;1253;73330;-59
2023/11/19 08:15:06;;;;;;;2.00;1.80;;;;;;;4.03;56.08;99883.67;104586;1265;59672;-59
2023/11/19 08:17:34;;;;;;;1.80;1.70;;;;;;;4.07;55.70;99883.45;104611;1257;60754;-60
2023/11/19 08:20:10;;;;;;;2.40;2.20;;;;;;;4.11;55.97;99877.35;104882;1257;72786;-60
2023/11/19 08:22:38;;;;;;;3.30;2.20;;;;;;;4.17;56.03;99871.89;104367;1264;69321;-60
2023/11/19 08:25:06;;;;;;;2.10;2.00;;;;;;;4.20;55.91;99869.77;104906;1257;72424;-61
2023/11/19 08:27:34;;;;;;;2.20;2.00;;;;;;;4.17;55.73;99864.60;104604;1254;59917;-60
2023/11/19 08:30:02;;;;;;;3.50;2.00;;;;;;;4.19;55.86;99856.94;104724;1254;59785;-59
2023/11/19 08:32:35;;;;;;;2.10;1.90;;;;;;;4.24;55.61;99854.08;104836;1257;74131;-60
2023/11/19 08:35:03;;;;;;;2.30;2.00;;;;;;;4.29;55.39;99851.94;104511;1257;69508;-59
2023/11/19 08:37:31;;;;;;;2.50;1.70;;;;;;;4.29;55.42;99847.60;104651;1257;71353;-60
2023/11/19 08:39:59;;;;;;;3.30;1.80;;;;;;;4.30;55.41;99848.80;105024;1254;60051;-60
2023/11/19 08:42:27;;;;;;;3.30;2.40;;;;;;;4.33;54.91;99843.73;104373;1267;59360;-60
2023/11/19 08:44:55;;;;;;;1.80;1.70;;;;;;;4.38;55.00;99844.35;104711;1267;71933;-59
2023/11/19 08:47:23;;;;;;;;;;;;;;;4.40;54.85;99841.72;104519;1257;69761;-61
2023/11/19 08:49:55;;;;;;;3.70;1.90;;;;;;;4.44;54.71;99838.88;104421;1273;72518;-61
2023/11/19 08:52:25;;;;;;;2.80;2.00;;;;;;;4.47;54.61;99829.46;104496;1256;59755;-59
2023/11/19 08:54:53;;;;;;;1.80;1.70;;;;;;;4.53;54.80;99827.64;104467;1263;60831;-59
2023/11/19 08:57:21;;;;;;;;;;;;;;;4.60;54.90;99826.14;104666;1254;73033;-59
2023/11/19 08:59:49;;;;;;;3.70;1.80;;;;;;;4.65;54.38;99813.20;104445;1257;69067;-59
2023/11/19 09:02:18;;;;;;;1.80;1.70;;;;;;;4.65;54.27;99807.84;104819;1254;73225;-59
2023/11/19 09:04:49;;;;;;;2.00;1.70;;;;;;;4.65;54.40;99806.80;104520;1257;59884;-60
2023/11/19 09:07:21;;;;;;;2.30;2.10;;;;;;;4.64;54.39;99808.37;104973;1256;59762;-60
2023/11/19 09:09:49;;;;;;;2.60;1.90;;;;;;;4.64;54.41;99804.73;104818;1252;72811;-61
2023/11/19 09:12:16;;;;;;;2.90;2.00;;;;;;;4.70;54.05;99804.46;104422;1259;69017;-61
2023/11/19 09:14:48;;;;;;;3.80;2.30;;;;;;;4.77;54.26;99805.04;104510;1260;72509;-61
2023/11/19 09:17:17;;;;;;;2.30;2.10;;;;;;;4.83;53.87;99800.93;104684;1252;60072;-60
2023/11/19 09:19:45;;;;;;;2.20;2.00;;;;;;;4.91;53.85;99797.50;104569;1268;60100;-60
2023/11/19 09:22:13;;;;;;;2.40;2.20;;;;;;;4.95;53.74;99794.66;104731;1254;71832;-60
2023/11/19 09:24:41;;;;;;;2.30;1.90;;;;;;;4.94;53.83;99792.60;104928;1254;69619;-61
2023/11/19 09:27:09;;;;;;;2.00;1.80;;;;;;;4.92;53.63;99790.55;104760;1254;72493;-60
2023/11/19 09:29:37;;;;;;;2.40;2.20;;;;;;;4.93;53.55;99790.71;104345;1257;59781;-61
2023/11/19 09:32:06;;;;;;;3.00;2.70;;;;;;;4.93;53.60;99789.13;104540;1270;62524;-61
2023/11/19 09:34:33;;;;;;;2.40;2.20;;;;;;;4.93;53.14;99785.67;104901;1256;73315;-61
2023/11/19 09:37:02;;;;;;;2.60;2.30;;;;;;;4.93;53.62;99786.55;104904;1257;70232;-61
2023/11/19 09:39:30;;;;;;;2.40;1.80;;;;;;;4.94;53.57;99795.55;104537;1257;72379;-60
2023/11/19 09:41:58;;;;;;;2.60;2.40;;;;;;;4.97;53.55;99803.30;104922;1254;59866;-60
2023/11/19 09:44:26;;;;;;;;;;;;;;;5.02;53.33;99805.13;104705;1254;60454;-60
2023/11/19 09:46:55;;;;;;;3.40;2.30;;;;;;;5.05;52.95;99804.74;104480;1258;73812;-62
2023/11/19 09:49:23;;;;;;;2.40;2.20;;;;;;;5.08;53.41;99801.73;104609;1257;70177;-59
2023/11/19 09:51:54;;;;;;;2.80;2.50;;;;;;;5.09;53.01;99800.86;104393;1257;72438;-61
2023/11/19 09:54:22;;;;;;;;;;;;;;;5.01;53.07;99804.27;104684;1254;59971;-60
2023/11/19 09:56:50;;;;;;;2.30;2.10;;;;;;;4.96;53.10;99806.62;105879;1253;59713;-60
2023/11/19 09:59:18;;;;;;;3.00;2.10;;;;;;;4.94;53.20;99803.54;108394;1252;73954;-60
2023/11/19 10:01:46;;;;;;;3.10;2.50;;;;;;;4.91;53.26;99806.38;108303;1254;69185;-61
2023/11/19 10:04:15;;;;;;;;;;;;;;;4.90;53.20;99806.04;108310;1253;72530;-60
2023/11/19 10:06:44;;;;;;;2.50;2.30;;;;;;;4.92;53.46;99801.85;107490;1253;59963;-60
2023/11/19 10:09:15;;;;;;;3.30;2.70;;;;;;;4.98;53.56;99794.95;106288;1252;60089;-60
2023/11/19 10:11:42;;;;;;;9.20;2.60;;;;;;;4.98;53.39;99789.23;107628;1253;73307;-58
2023/11/19 10:14:10;;;;;;;5.30;3.00;;;;;;;5.00;53.76;99783.27;104701;1257;69294;-59
2023/11/19 10:16:39;;;;;;;3.90;2.70;;;;;;;5.08;53.62;99780.52;104646;1252;72409;-61
2023/11/19 10:19:06;;;;;;;2.60;2.30;;;;;;;5.13;53.22;99780.80;104504;1255;59639;-59
2023/11/19 10:21:34;;;;;;;;;;;;;;;5.07;53.05;99778.46;104653;1253;60313;-58
2023/11/19 10:24:02;;;;;;;2.20;2.00;;;;;;;5.03;52.90;99776.29;104709;1258;71605;-60
2023/11/19 10:26:30;;;;;;;4.20;2.30;;;;;;;5.00;52.97;99776.86;104656;1257;68022;-63
2023/11/19 10:28:58;;;;;;;4.20;2.60;;;;;;;5.03;52.87;99778.02;104571;1252;72441;-61
2023/11/19 19:14:09;;;;;;;6.00;4.80;;;;;;;2.95;59.37;99349.32;101671;1291;600878;-58
2023/11/19 19:16:39;;;;;;;5.40;4.70;;;;;;;3.39;58.04;99351.38;104032;1282;59253;-57
2023/11/19 19:19:07;;;;;;;4.90;4.40;;;;;;;3.40;57.97;99351.18;104090;1260;62162;-58
2023/11/19 19:21:34;;;;;;;6.00;4.90;;;;;;;3.41;57.78;99349.96;104127;1265;72077;-57
2023/11/19 19:24:07;;;;;;;5.50;4.80;;;;;;;3.37;57.45;99348.30;103887;1266;69538;-57
2023/11/19 19:26:36;;;;;;;6.20;4.90;;;;;;;3.31;57.74;99344.94;103728;1264;404220;-59
2023/11/19 19:29:04;;;;;;;5.50;4.60;;;;;;;3.29;57.61;99343.58;104526;1257;59337;-58
2023/11/19 19:31:32;;;;;;;;;;;;;;;3.29;58.02;99343.07;104488;1259;59830;-59
2023/11/19 19:34:00;;;;;;;4.60;4.20;;;;;;;3.29;57.77;99340.65;104597;1262;72157;-57
2023/11/19 19:36:28;;;;;;;4.60;4.20;;;;;;;3.27;57.63;99337.90;104542;1272;70587;-57
2023/11/19 19:38:56;;;;;;;9.90;4.40;;;;;;;3.27;57.37;99338.42;104121;1263;72218;-57
2023/11/19 19:41:26;;;;;;;5.80;4.80;;;;;;;3.23;57.97;99337.45;103957;1257;59858;-59
2023/11/19 19:43:55;;;;;;;5.40;4.90;;;;;;;3.23;57.96;99332.77;104285;1263;60217;-57
2023/11/19 19:46:24;;;;;;;5.50;4.80;;;;;;;3.23;57.65;99332.08;104245;1260;72835;-57
2023/11/19 19:48:53;;;;;;;4.40;4.00;;;;;;;3.16;57.86;99333.43;104279;1260;70326;-60
2023/11/19 19:51:21;;;;;;;7.00;4.70;;;;;;;3.12;58.02;99333.32;104284;1259;73117;-60
2023/11/19 19:53:49;;;;;;;6.10;4.90;;;;;;;3.12;58.08;99331.42;104486;1263;59759;-59
2023/11/19 19:56:17;;;;;;;5.70;4.70;;;;;;;3.07;57.95;99330.63;104439;1257;59823;-59
2023/11/19 19:58:46;;;;;;;5.60;5.10;;;;;;;2.99;58.11;99328.87;104226;1258;73259;-60
2023/11/19 20:01:15;;;;;;;5.10;4.60;;;;;;;2.91;58.36;99327.42;104520;1257;70073;-60
2023/11/19 20:03:42;;;;;;;5.70;4.60;;;;;;;2.87;58.37;99325.25;104361;1262;73651;-59
2023/11/19 20:06:11;;;;;;;6.30;4.50;;;;;;;2.88;58.69;99322.65;104665;1257;59765;-58
2023/11/19 20:08:39;;;;;;;5.00;4.50;;;;;;;2.91;58.74;99320.00;104551;1260;60381;-60
2023/11/19 20:11:08;;;;;;;6.90;4.70;;;;;;;2.95;58.87;99317.49;104498;1262;73430;-60
2023/11/19 20:13:36;;;;;;;5.40;4.70;;;;;;;3.00;59.25;99313.77;104709;1263;71355;-60
2023/11/19 20:16:05;;;;;;;;;;;;;;;3.07;58.92;99311.23;104457;1259;72802;-59
2023/11/19 20:18:32;;;;;;;4.40;4.00;;;;;;;3.09;58.77;99304.95;104489;1257;59771;-59
2023/11/19 20:21:08;;;;;;;5.60;4.70;;;;;;;3.15;58.96;99306.25;104589;1261;60027;-59
2023/11/19 20:23:36;;;;;;;6.50;4.40;;;;;;;3.19;58.72;99304.11;104911;1253;73366;-59
2023/11/19 20:26:04;;;;;;;5.00;4.50;;;;;;;3.25;58.80;99298.62;104968;1252;69719;-59
2023/11/19 20:28:31;;;;;;;6.90;4.70;;;;;;;3.29;58.85;99296.63;104426;1261;73750;-60
2023/11/19 20:31:00;;;;;;;;;;;;;;;3.34;58.73;99294.13;104934;1270;60550;-59
2023/11/19 20:33:28;;;;;;;5.50;4.90;;;;;;;3.27;58.80;99297.02;104474;1259;60410;-59
2023/11/19 20:35:57;;;;;;;;;;;;;;;3.23;58.63;99298.83;105094;1259;76252;-59